Terminal Aerodrome Forecast
Issued by NWS

Home | Current Version | Previous Version | Text Only | Print | Product List | Glossary Off
Versions: 1 2 3 4 5 6 7 8 9 10 11 12 13 14 15 16 17 18 19 20

000
FTUS43 KOAX 041120
TAFCDR
TAF
KCDR 041120Z 0412/0512 02008KT P6SM VCSH OVC080
     FM041300 13012KT P6SM BKN050
     FM050300 11007KT 4SM BR SCT005 OVC015
     FM050600 02007KT 3SM BR OVC005=

USA.gov is the U.S. government's official web portal to all federal, state and local government web resources and services.